LOWL/LNZ METAR and TAF weather

Enter ICAO airport designator
Station Type Date Time Source
LOWL METAR 2019/12/16 03:20 UTC NOAA

LOWL 160320Z AUTO VRB01KT 9999 FEW250 01/01 Q1015


Station Type Date Time Source
LOWL Decoded METAR 2019/12/16 03:20 UTC NOAA

Linz / Hoersching-Flughafen, Austria (LOWL) 48-14N 014-11E 313M
Dec 15, 2019 - 10:20 PM EST / 2019.12.16 0320 UTC
Wind: Variable at 1 MPH (1 KT):0
Visibility: greater than 7 mile(s):0
Sky conditions: mostly clear
Temperature: 33 F (1 C)
Dew Point: 33 F (1 C)
Relative Humidity: 100%
Pressure (altimeter): 29.97 in. Hg (1015 hPa)
ob: LOWL 160320Z AUTO VRB01KT 9999 FEW250 01/01 Q1015
cycle: 3

Station Type Date Time Source
LOWL TAF 2019/12/15 18:24 UTC NOAA

TAF TAF LOWL 151715Z 1518/1618 VRB02KT CAVOK TX05/1613Z TN00/1607Z
BECMG 1523/1602 3000 BR NSC PROB40 1602/1611 0200 BCFG BKN002
BECMG 1610/1612 4000 BR NSC
BECMG 1612/1614 09005KT CAVOK

Example: see airport list